< < Back
Terminal Aerodrome Forecast


Current Version              Previous Versions:   1  2  3  4  5  6  7  8  9  

Terminal Aerodrome Forecast

984
FTUS42 KILM 221700 CCA
TAFILM
TAF COR
KILM 221753Z 2218/2318 09006KT P6SM VCSH SCT015 BKN030 BKN060
      TEMPO 2218/2221 3SM SHRA BR BKN015
     FM230000 18005KT P6SM VCSH SCT020 BKN150
     FM230600 24003KT P6SM VCSH SCT020 SCT040 OVC150
     FM231300 26006KT P6SM BKN020 OVC120=



Latest METAR

923
SAUS70 KWBC 230600 RRI
MTRILM
METAR KILM 230553Z AUTO 00000KT 10SM CLR 23/22 A3009 RMK AO2 SLP188
T02330222 10267 20233 58005


USA.gov is the U.S. government's official web portal to all federal, state and local government web resources and services.